Airfield :
LOGIN :

Register | Disclaimer

   EN    FR    IT 

 










Legend :    VFR   Marginal VFR   IFR   Intensive IFR   Very Intensive IFR
Visi :
Ceiling :
>= 8 km
>= 3000ft
5 to 8 km
1000 to 3000 ft
1500m to 5 km
500 to 1000 ft
800 to 1500m
200 to 500 ft
< 800m
< 200 ft
Symbols :   Thunderstorms  Fog  Heavy snow  Heavy precipitations  Wind > 20 kt
SIGMETs :     Misc.  Thunderstorms  Icing  Turbulence  Mountain Waves  Volcanic Ashes






- Airport Elevation : 502 ft
- IATA code : ORK


EICK - Cork

CURRENT METAR :
  • 261030Z 28003KT 0500 R16/0900N R34/0500N -RA FG OVC001 08/08 Q1006 NOSIG

EXPIRED METARs :
  • 261000Z 28005KT 0600 R16/0500N R34/0800U -RA FG OVC001 08/08 Q1006 NOSIG
  • 260930Z 27006KT 0500 R16/0550N R34/0650N -RA FG OVC001 08/08 Q1006 NOSIG
  • 260900Z 24008KT 0500 R16/0600N R34/0550N -RA FG OVC001 09/08 Q1006 NOSIG
  • 260830Z 20007KT 0600 R16/0700D R34/0700N FG OVC001 08/08 Q1005 NOSIG
  • 260800Z 19008KT 1200 R16/1300D R34/1200N -RA BKN002 08/08 Q1005 TEMPO 0700 BKN001

TAF TAF EICK
Valid from the 26 at 06:00 until the 27 at 06:00 UTC


260500Z 2606/2706 16012KT 3000 -RA BKN003
TEMPO 2606/2611 0500 FG BKN001
BECMG 2607/2609 22008KT
BECMG 2609/2611 27012KT
BECMG 2611/2613 9999 NSW FEW010 BKN020
TEMPO 2613/2618 BKN008
TEMPO 2618/2623 3000 BR BKN005
BECMG 2619/2621 24010KT
BECMG 2623/2701 21007KT 3000 -DZ BR BKN003
TEMPO 2700/2706 0700 FG BKN001



MET'MAP, your aeronautical weather chart ! - Copyright ORBIFLY December 2007 - Disclaimer

ORBIFLY MET'MAP TEAM :

Programming & Development : Alexandra Zaïnal
Concept & original design : Baudouin d'Aumeries
Assistance for programming : Marc-Olivier Méhu
Technical & hardware support : Manuel Goepfert

Contact : metmap@orbifly.com




SOURCES & CREDITS :

   NOAA